createdAt,value
2019-06-07T00:00:37.189Z,15.90
2019-06-07T00:02:45.457Z,15.90
2019-06-07T00:05:17.139Z,15.90
2019-06-07T00:07:44.378Z,15.90
2019-06-07T00:10:32.630Z,15.80
2019-06-07T00:12:43.418Z,15.80
2019-06-07T00:15:16.399Z,15.60
2019-06-07T00:17:42.326Z,15.50
2019-06-07T00:20:15.053Z,15.40
2019-06-07T00:22:41.589Z,15.30
2019-06-07T00:25:13.335Z,15.30
2019-06-07T00:27:40.474Z,15.30
2019-06-07T00:30:33.826Z,15.30
2019-06-07T00:32:40.396Z,15.10
2019-06-07T00:35:15.478Z,15.10
2019-06-07T00:37:43.305Z,15.10
2019-06-07T00:40:18.617Z,15.10
2019-06-07T00:42:43.613Z,15.10
2019-06-07T00:45:17.745Z,15.00
2019-06-07T00:47:43.480Z,14.90
2019-06-07T00:50:13.761Z,14.90
2019-06-07T00:53:13.210Z,14.80
2019-06-07T00:55:14.284Z,14.80
2019-06-07T00:57:43.664Z,14.80
2019-06-07T01:00:14.757Z,14.80
2019-06-07T01:02:43.227Z,14.80
2019-06-07T01:05:15.436Z,14.70
2019-06-07T01:07:42.045Z,14.70
2019-06-07T01:10:13.844Z,14.70
2019-06-07T01:12:42.892Z,14.70
2019-06-07T01:15:12.019Z,14.70
2019-06-07T01:18:00.025Z,14.70
2019-06-07T01:20:12.402Z,14.70
2019-06-07T01:22:40.956Z,14.60
2019-06-07T01:25:10.055Z,14.60
2019-06-07T01:27:38.591Z,14.50
2019-06-07T01:30:12.450Z,14.50
2019-06-07T01:32:41.057Z,14.40
2019-06-07T01:35:13.111Z,14.40
2019-06-07T01:37:41.686Z,14.40
2019-06-07T01:40:10.896Z,14.40
2019-06-07T01:42:39.387Z,14.30
2019-06-07T01:45:09.158Z,14.30
2019-06-07T01:47:37.682Z,14.30
2019-06-07T01:50:08.474Z,14.20
2019-06-07T01:52:37.018Z,14.20
2019-06-07T01:55:06.731Z,14.10
2019-06-07T01:57:47.545Z,14.10
2019-06-07T02:00:06.793Z,14.10
2019-06-07T02:02:35.341Z,14.00
2019-06-07T02:05:06.304Z,14.00
2019-06-07T02:07:35.058Z,14.00
2019-06-07T02:10:05.559Z,13.90
2019-06-07T02:12:42.438Z,13.80
2019-06-07T02:15:07.390Z,13.80
2019-06-07T02:17:36.105Z,13.70
2019-06-07T02:20:09.027Z,13.70
2019-06-07T02:22:37.506Z,13.70
2019-06-07T02:27:37.579Z,13.60
2019-06-07T02:30:36.792Z,13.60
2019-06-07T02:32:39.183Z,13.60
2019-06-07T02:35:08.012Z,13.50
2019-06-07T02:37:37.430Z,13.40
2019-06-07T02:40:08.489Z,13.30
2019-06-07T02:42:42.237Z,13.30
2019-06-07T02:45:10.806Z,13.30
2019-06-07T02:47:39.119Z,13.20
2019-06-07T02:50:10.634Z,13.20
2019-06-07T02:52:40.885Z,13.10
2019-06-07T02:55:10.334Z,13.10
2019-06-07T02:57:41.564Z,13.10
2019-06-07T03:00:40.853Z,13.10
2019-06-07T03:02:41.978Z,13.10
2019-06-07T03:05:10.750Z,13.10
2019-06-07T03:07:45.343Z,13.10
2019-06-07T03:10:12.826Z,13.10
2019-06-07T03:12:43.393Z,13.00
2019-06-07T03:15:30.103Z,13.00
2019-06-07T03:17:56.930Z,13.00
2019-06-07T03:20:28.087Z,13.10
2019-06-07T03:23:00.012Z,13.10
2019-06-07T03:25:35.717Z,13.10
2019-06-07T03:28:01.773Z,13.00
2019-06-07T03:30:57.163Z,13.00
2019-06-07T03:33:00.562Z,13.00
2019-06-07T03:35:31.363Z,13.00
2019-06-07T03:37:59.338Z,13.00
2019-06-07T03:40:29.090Z,13.00
2019-06-07T03:42:57.673Z,13.00
2019-06-07T03:45:28.532Z,13.00
2019-06-07T03:47:56.398Z,12.90
2019-06-07T03:50:25.196Z,12.90
2019-06-07T03:52:53.745Z,12.80
2019-06-07T03:55:22.220Z,12.80
2019-06-07T04:00:21.477Z,12.80
2019-06-07T04:02:50.029Z,12.80
2019-06-07T04:05:19.081Z,12.90
2019-06-07T04:07:48.512Z,12.90
2019-06-07T04:10:17.233Z,12.90
2019-06-07T04:12:46.165Z,13.10
2019-06-07T04:15:15.165Z,13.40
2019-06-07T04:18:00.771Z,14.00
2019-06-07T04:20:14.380Z,14.60
2019-06-07T04:22:42.954Z,15.20
2019-06-07T04:25:12.562Z,15.50
2019-06-07T04:27:41.455Z,15.60
2019-06-07T04:30:14.918Z,15.60
2019-06-07T04:32:44.939Z,15.90
2019-06-07T04:35:13.798Z,16.50
2019-06-07T04:37:43.458Z,16.80
2019-06-07T04:40:12.148Z,16.70
2019-06-07T04:42:45.409Z,16.30
2019-06-07T04:45:33.186Z,16.00
2019-06-07T04:47:46.310Z,15.60
2019-06-07T04:50:15.063Z,15.60
2019-06-07T04:52:45.488Z,15.80
2019-06-07T04:55:14.098Z,15.90
2019-06-07T04:57:43.419Z,16.20
2019-06-07T05:00:46.664Z,16.60
2019-06-07T05:02:43.623Z,17.20
2019-06-07T05:05:12.634Z,17.90
2019-06-07T05:07:46.131Z,18.50
2019-06-07T05:10:11.354Z,18.90
2019-06-07T05:12:44.021Z,19.30
2019-06-07T05:15:10.209Z,19.50
2019-06-07T05:17:42.627Z,19.60
2019-06-07T05:20:33.565Z,19.60
2019-06-07T05:23:00.653Z,20.00
2019-06-07T05:25:31.833Z,20.70
2019-06-07T05:27:59.563Z,21.50
2019-06-07T05:31:01.952Z,22.00
2019-06-07T05:33:07.657Z,22.60
2019-06-07T05:35:40.137Z,23.10
2019-06-07T05:38:07.129Z,23.30
2019-06-07T05:40:43.939Z,23.60
2019-06-07T05:43:22.826Z,23.70
2019-06-07T05:45:51.336Z,24.20
2019-06-07T05:48:19.873Z,24.80
2019-06-07T05:50:56.410Z,24.90
2019-06-07T05:53:18.642Z,25.10
2019-06-07T05:55:47.845Z,24.90
2019-06-07T05:58:16.662Z,24.90
2019-06-07T06:00:47.554Z,25.10
2019-06-07T06:03:15.424Z,25.60
2019-06-07T06:05:53.790Z,25.90
2019-06-07T06:08:14.139Z,25.70
2019-06-07T06:10:46.233Z,25.70
2019-06-07T06:13:12.816Z,25.60
2019-06-07T06:15:54.461Z,25.70
2019-06-07T06:18:12.617Z,26.20
2019-06-07T06:21:04.921Z,26.60
2019-06-07T06:23:11.432Z,27.30
2019-06-07T06:25:42.639Z,27.80
2019-06-07T06:28:12.638Z,27.10
2019-06-07T06:30:41.216Z,26.30
2019-06-07T06:33:27.168Z,25.90
2019-06-07T06:35:42.357Z,25.50
2019-06-07T06:38:11.054Z,25.10
2019-06-07T06:40:43.328Z,24.80
2019-06-07T06:43:10.644Z,24.30
2019-06-07T06:45:40.186Z,23.50
2019-06-07T06:48:08.911Z,23.00
2019-06-07T06:50:38.711Z,22.90
2019-06-07T06:53:09.018Z,22.90
2019-06-07T06:55:39.029Z,22.90
2019-06-07T06:58:07.781Z,22.80
2019-06-07T07:01:04.439Z,22.60
2019-06-07T07:03:55.917Z,22.40
2019-06-07T07:05:54.388Z,22.30
2019-06-07T07:08:22.861Z,21.70
2019-06-07T07:10:55.053Z,21.10
2019-06-07T07:13:45.326Z,20.80
2019-06-07T07:16:13.468Z,20.70
2019-06-07T07:18:41.982Z,21.30
2019-06-07T07:21:11.238Z,21.60
2019-06-07T07:24:01.578Z,21.30
2019-06-07T07:26:09.945Z,21.00
2019-06-07T07:28:38.420Z,20.70
2019-06-07T07:31:06.949Z,20.50
2019-06-07T07:36:23.231Z,19.70
2019-06-07T07:38:36.107Z,19.50
2019-06-07T07:41:15.239Z,19.90
2019-06-07T07:43:37.803Z,21.10
2019-06-07T07:46:28.369Z,22.20
2019-06-07T07:48:36.572Z,22.50
2019-06-07T07:51:05.192Z,22.80
2019-06-07T07:53:48.730Z,23.60
2019-06-07T07:56:06.350Z,24.20
2019-06-07T07:58:35.319Z,24.00
2019-06-07T08:01:10.102Z,23.10
2019-06-07T08:03:34.066Z,22.80
2019-06-07T08:06:02.568Z,22.60
2019-06-07T08:08:31.114Z,22.30
2019-06-07T08:11:02.169Z,22.00
2019-06-07T08:13:29.818Z,21.90
2019-06-07T08:16:02.116Z,21.60
2019-06-07T08:18:34.156Z,21.30
2019-06-07T08:21:21.539Z,21.70
2019-06-07T08:23:32.894Z,22.10
2019-06-07T08:26:01.459Z,22.70
2019-06-07T08:28:30.170Z,22.80
2019-06-07T08:31:06.485Z,22.70
2019-06-07T08:33:28.893Z,22.20
2019-06-07T08:36:10.559Z,21.60
2019-06-07T08:38:46.571Z,21.20
2019-06-07T08:41:10.442Z,21.00
2019-06-07T08:43:28.235Z,21.50
2019-06-07T08:46:02.211Z,22.50
2019-06-07T08:48:28.353Z,23.20
2019-06-07T08:51:02.255Z,23.20
2019-06-07T08:53:27.364Z,22.70
2019-06-07T08:56:00.885Z,22.30
2019-06-07T08:58:26.083Z,22.30
2019-06-07T09:00:58.094Z,22.70
2019-06-07T09:03:24.765Z,23.10
2019-06-07T09:05:54.212Z,23.00
2019-06-07T09:08:30.348Z,22.80
2019-06-07T09:10:56.394Z,22.70
2019-06-07T09:13:23.942Z,22.40
2019-06-07T09:15:55.953Z,22.30
2019-06-07T09:18:40.827Z,22.80
2019-06-07T09:20:55.623Z,23.00
2019-06-07T09:23:24.916Z,23.20
2019-06-07T09:26:02.691Z,23.40
2019-06-07T09:28:24.807Z,23.50
2019-06-07T09:30:53.343Z,23.50
2019-06-07T09:33:21.813Z,23.50
2019-06-07T09:35:50.343Z,23.60
2019-06-07T09:38:25.492Z,23.50
2019-06-07T09:40:49.134Z,23.40
2019-06-07T09:45:47.974Z,23.50
2019-06-07T09:49:01.301Z,23.50
2019-06-07T09:50:46.724Z,23.60
2019-06-07T09:53:22.625Z,23.50
2019-06-07T09:55:45.467Z,23.30
2019-06-07T09:58:50.595Z,23.10
2019-06-07T10:00:45.737Z,23.10
2019-06-07T10:03:21.214Z,23.20
2019-06-07T10:05:44.553Z,23.30
2019-06-07T10:09:00.968Z,23.40
2019-06-07T10:10:43.476Z,23.30
2019-06-07T10:13:12.227Z,23.30
2019-06-07T10:15:41.264Z,23.20
2019-06-07T10:18:09.937Z,23.20
2019-06-07T10:20:38.507Z,23.10
2019-06-07T10:23:08.021Z,23.10
2019-06-07T10:25:36.795Z,23.00
2019-06-07T10:28:06.034Z,23.10
2019-06-07T10:30:34.948Z,23.20
2019-06-07T10:33:04.914Z,23.10
2019-06-07T10:35:39.974Z,23.20
2019-06-07T10:38:08.639Z,23.30
2019-06-07T10:40:37.162Z,23.30
2019-06-07T10:43:07.085Z,23.20
2019-06-07T10:45:35.797Z,23.30
2019-06-07T10:48:05.609Z,23.30
2019-06-07T10:50:34.239Z,23.40
2019-06-07T10:53:02.702Z,23.60
2019-06-07T10:55:31.413Z,23.70
2019-06-07T10:57:59.924Z,23.80
2019-06-07T11:00:30.010Z,23.80
2019-06-07T11:02:58.481Z,23.70
2019-06-07T11:05:27.125Z,23.70
2019-06-07T11:08:00.518Z,23.80
2019-06-07T11:10:27.175Z,24.00
2019-06-07T11:12:57.309Z,24.30
2019-06-07T11:15:25.778Z,24.20
2019-06-07T11:17:54.266Z,24.40
2019-06-07T11:20:22.916Z,24.50
2019-06-07T11:22:51.447Z,24.60
2019-06-07T11:25:19.942Z,24.70
2019-06-07T11:27:48.421Z,24.60
2019-06-07T11:30:18.783Z,24.60
2019-06-07T11:32:47.356Z,24.70
2019-06-07T11:35:16.283Z,24.80
2019-06-07T11:37:44.753Z,24.90
2019-06-07T11:40:30.785Z,24.90
2019-06-07T11:42:43.885Z,24.70
2019-06-07T11:45:13.407Z,24.70
2019-06-07T11:47:42.726Z,24.50
2019-06-07T11:50:13.702Z,24.60
2019-06-07T11:52:45.975Z,24.60
2019-06-07T11:55:13.548Z,24.60
2019-06-07T11:57:42.997Z,24.70
2019-06-07T12:00:16.079Z,25.00
2019-06-07T12:02:44.546Z,25.20
2019-06-07T12:05:16.553Z,25.20
2019-06-07T12:07:43.453Z,25.20
2019-06-07T12:10:12.617Z,25.30
2019-06-07T12:12:41.166Z,25.30
2019-06-07T12:15:11.041Z,25.20
2019-06-07T12:17:40.834Z,25.10
2019-06-07T12:20:11.312Z,25.10
2019-06-07T12:22:40.402Z,25.10
2019-06-07T12:25:10.368Z,25.20
2019-06-07T12:27:39.161Z,25.20
2019-06-07T12:30:11.113Z,25.30
2019-06-07T12:32:39.067Z,25.30
2019-06-07T12:35:08.027Z,25.40
2019-06-07T12:37:43.796Z,25.40
2019-06-07T12:40:08.288Z,25.60
2019-06-07T12:42:37.441Z,25.80
2019-06-07T12:45:09.630Z,26.00
2019-06-07T12:47:38.135Z,26.20
2019-06-07T12:50:07.553Z,26.30
2019-06-07T12:52:36.232Z,26.30
2019-06-07T12:55:07.110Z,26.30
2019-06-07T12:57:35.583Z,26.10
2019-06-07T13:00:13.940Z,25.80
2019-06-07T13:02:42.685Z,25.80
2019-06-07T13:05:11.610Z,25.70
2019-06-07T13:07:41.290Z,25.70
2019-06-07T13:10:10.590Z,25.80
2019-06-07T13:12:39.346Z,25.80
2019-06-07T13:15:08.685Z,25.80
2019-06-07T13:17:37.622Z,25.80
2019-06-07T13:20:08.362Z,25.80
2019-06-07T13:22:36.996Z,25.80
2019-06-07T13:25:06.881Z,25.80
2019-06-07T13:27:35.488Z,25.80
2019-06-07T13:30:10.271Z,25.70
2019-06-07T13:32:36.786Z,25.60
2019-06-07T13:35:08.612Z,25.50
2019-06-07T13:37:37.260Z,25.50
2019-06-07T13:40:07.749Z,25.50
2019-06-07T13:42:36.464Z,25.40
2019-06-07T13:45:07.044Z,25.40
2019-06-07T13:47:35.715Z,25.40
2019-06-07T13:50:08.621Z,25.40
2019-06-07T13:52:37.661Z,25.50
2019-06-07T13:55:07.083Z,25.60
2019-06-07T13:57:35.706Z,25.70
2019-06-07T14:00:12.041Z,25.80
2019-06-07T14:02:40.899Z,25.80
2019-06-07T14:05:09.609Z,25.80
2019-06-07T14:07:38.151Z,25.80
2019-06-07T14:10:11.452Z,25.90
2019-06-07T14:12:38.912Z,25.80
2019-06-07T14:15:09.276Z,25.80
2019-06-07T14:17:37.758Z,25.90
2019-06-07T14:20:11.326Z,25.90
2019-06-07T14:22:39.954Z,25.90
2019-06-07T14:25:10.829Z,25.90
2019-06-07T14:27:40.744Z,25.90
2019-06-07T14:30:10.819Z,25.90
2019-06-07T14:32:39.305Z,25.80
2019-06-07T14:35:09.929Z,25.70
2019-06-07T14:37:38.468Z,25.60
2019-06-07T14:40:08.507Z,25.60
2019-06-07T14:42:37.104Z,25.60
2019-06-07T14:45:08.009Z,25.60
2019-06-07T14:47:36.986Z,25.60
2019-06-07T14:50:10.249Z,25.60
2019-06-07T14:52:38.751Z,25.60
2019-06-07T14:55:07.821Z,25.60
2019-06-07T14:57:37.334Z,25.60
2019-06-07T15:00:12.274Z,25.70
2019-06-07T15:02:41.095Z,25.70
2019-06-07T15:05:11.377Z,25.70
2019-06-07T15:07:40.594Z,25.60
2019-06-07T15:10:09.921Z,25.50
2019-06-07T15:12:40.018Z,25.30
2019-06-07T15:15:10.493Z,25.10
2019-06-07T15:17:41.378Z,24.90
2019-06-07T15:20:10.540Z,24.70
2019-06-07T15:22:39.166Z,24.50
2019-06-07T15:25:08.689Z,24.30
2019-06-07T15:27:37.690Z,24.10
2019-06-07T15:30:10.828Z,24.00
2019-06-07T15:32:39.968Z,23.90
2019-06-07T15:35:09.004Z,23.80
2019-06-07T15:37:38.897Z,23.80
2019-06-07T15:40:29.039Z,23.80
2019-06-07T15:42:57.618Z,23.70
2019-06-07T15:45:26.083Z,23.60
2019-06-07T15:47:54.575Z,23.50
2019-06-07T15:50:23.055Z,23.40
2019-06-07T15:52:52.067Z,23.30
2019-06-07T15:55:21.174Z,23.20
2019-06-07T15:57:49.732Z,23.10
2019-06-07T16:00:19.727Z,23.00
2019-06-07T16:02:48.489Z,22.90
2019-06-07T16:05:19.457Z,22.90
2019-06-07T16:07:48.016Z,22.70
2019-06-07T16:10:17.164Z,22.60
2019-06-07T16:12:59.775Z,22.60
2019-06-07T16:15:18.411Z,22.50
2019-06-07T16:17:47.180Z,22.40
2019-06-07T16:20:17.493Z,22.40
2019-06-07T16:22:45.976Z,22.30
2019-06-07T16:25:15.868Z,22.20
2019-06-07T16:27:44.797Z,22.10
2019-06-07T16:30:32.738Z,22.10
2019-06-07T16:33:01.198Z,22.00
2019-06-07T16:35:29.737Z,22.00
2019-06-07T16:37:58.224Z,21.90
2019-06-07T16:40:26.697Z,21.80
2019-06-07T16:42:55.184Z,21.70
2019-06-07T16:45:23.814Z,21.60
2019-06-07T16:47:54.155Z,21.50
2019-06-07T16:50:23.163Z,21.40
2019-06-07T16:52:51.673Z,21.30
2019-06-07T16:55:20.666Z,21.20
2019-06-07T16:57:49.290Z,21.20
2019-06-07T17:00:18.631Z,21.00
2019-06-07T17:02:48.722Z,21.00
2019-06-07T17:05:18.411Z,20.90
2019-06-07T17:07:48.574Z,20.80
2019-06-07T17:10:17.729Z,20.80
2019-06-07T17:12:46.936Z,20.80
2019-06-07T17:15:17.058Z,20.70
2019-06-07T17:17:47.160Z,20.70
2019-06-07T17:20:17.791Z,20.60
2019-06-07T17:22:49.760Z,20.60
2019-06-07T17:25:18.687Z,20.60
2019-06-07T17:27:48.306Z,20.60
2019-06-07T17:30:17.940Z,20.50
2019-06-07T17:32:55.205Z,20.50
2019-06-07T17:35:36.105Z,20.50
2019-06-07T17:38:04.637Z,20.50
2019-06-07T17:40:34.123Z,20.50
2019-06-07T17:43:02.673Z,20.40
2019-06-07T17:45:31.206Z,20.40
2019-06-07T17:48:03.825Z,20.40
2019-06-07T17:50:32.405Z,20.30
2019-06-07T17:53:00.903Z,20.30
2019-06-07T17:55:29.413Z,20.20
2019-06-07T17:57:57.918Z,20.20
2019-06-07T18:00:29.858Z,20.20
2019-06-07T18:02:59.824Z,20.20
2019-06-07T18:05:28.369Z,20.10
2019-06-07T18:07:57.805Z,20.10
2019-06-07T18:10:32.220Z,20.00
2019-06-07T18:13:00.722Z,20.00
2019-06-07T18:15:51.705Z,20.00
2019-06-07T18:18:17.832Z,19.90
2019-06-07T18:20:47.186Z,19.90
2019-06-07T18:23:15.937Z,19.90
2019-06-07T18:25:44.511Z,19.90
2019-06-07T18:28:13.198Z,19.90
2019-06-07T18:30:41.768Z,19.90
2019-06-07T18:33:10.252Z,19.90
2019-06-07T18:35:38.731Z,19.90
2019-06-07T18:38:10.610Z,19.90
2019-06-07T18:40:37.554Z,20.00
2019-06-07T18:43:06.029Z,20.00
2019-06-07T18:45:34.618Z,20.10
2019-06-07T18:48:03.189Z,20.10
2019-06-07T18:50:31.719Z,20.00
2019-06-07T18:53:22.299Z,19.90
2019-06-07T18:55:49.917Z,19.80
2019-06-07T18:58:18.735Z,19.70
2019-06-07T19:00:47.461Z,19.70
2019-06-07T19:03:16.606Z,19.60
2019-06-07T19:05:45.130Z,19.50
2019-06-07T19:08:13.680Z,19.50
2019-06-07T19:10:42.225Z,19.40
2019-06-07T19:13:10.696Z,19.30
2019-06-07T19:15:39.199Z,19.30
2019-06-07T19:18:07.745Z,19.20
2019-06-07T19:20:36.221Z,19.10
2019-06-07T19:23:04.959Z,19.00
2019-06-07T19:25:33.538Z,19.00
2019-06-07T19:28:02.022Z,19.00
2019-06-07T19:30:31.263Z,18.90
2019-06-07T19:33:01.136Z,18.80
2019-06-07T19:35:30.833Z,18.70
2019-06-07T19:37:59.963Z,18.70
2019-06-07T19:40:28.657Z,18.60
2019-06-07T19:42:58.494Z,18.50
2019-06-07T19:45:30.761Z,18.50
2019-06-07T19:48:00.770Z,18.40
2019-06-07T19:50:29.352Z,18.30
2019-06-07T19:52:59.092Z,18.30
2019-06-07T19:55:27.790Z,18.20
2019-06-07T19:57:57.492Z,18.10
2019-06-07T20:00:26.377Z,18.10
2019-06-07T20:02:55.842Z,18.00
2019-06-07T20:05:24.488Z,17.90
2019-06-07T20:07:54.333Z,17.90
2019-06-07T20:10:23.180Z,17.80
2019-06-07T20:12:51.783Z,17.80
2019-06-07T20:15:29.460Z,17.70
2019-06-07T20:17:50.714Z,17.70
2019-06-07T20:20:19.806Z,17.70
2019-06-07T20:22:48.344Z,17.60
2019-06-07T20:25:17.465Z,17.60
2019-06-07T20:27:46.116Z,17.60
2019-06-07T20:30:14.978Z,17.50
2019-06-07T20:32:43.557Z,17.50
2019-06-07T20:35:12.364Z,17.50
2019-06-07T20:37:41.067Z,17.40
2019-06-07T20:40:23.707Z,17.40
2019-06-07T20:42:40.949Z,17.40
2019-06-07T20:45:10.850Z,17.30
2019-06-07T20:47:39.612Z,17.30
2019-06-07T20:50:08.928Z,17.30
2019-06-07T20:52:37.669Z,17.20
2019-06-07T20:55:06.926Z,17.20
2019-06-07T20:57:35.581Z,17.20
2019-06-07T21:00:17.300Z,17.20
2019-06-07T21:02:40.137Z,17.10
2019-06-07T21:05:09.903Z,17.10
2019-06-07T21:07:38.859Z,17.10
2019-06-07T21:10:08.463Z,17.00
2019-06-07T21:12:37.766Z,17.00
2019-06-07T21:15:11.892Z,17.00
2019-06-07T21:17:38.845Z,17.00
2019-06-07T21:20:11.775Z,16.90
2019-06-07T21:22:38.687Z,16.90
2019-06-07T21:25:11.522Z,16.90
2019-06-07T21:27:40.409Z,16.90
2019-06-07T21:30:09.802Z,16.90
2019-06-07T21:32:38.436Z,16.80
2019-06-07T21:35:10.565Z,16.80
2019-06-07T21:37:39.068Z,16.80
2019-06-07T21:40:08.206Z,16.80
2019-06-07T21:42:37.022Z,16.80
2019-06-07T21:45:07.849Z,16.80
2019-06-07T21:47:36.764Z,16.80
2019-06-07T21:50:10.598Z,16.80
2019-06-07T21:52:39.435Z,16.70
2019-06-07T21:55:09.223Z,16.70
2019-06-07T21:57:38.199Z,16.70
2019-06-07T22:00:37.708Z,16.70
2019-06-07T22:03:07.335Z,16.70
2019-06-07T22:05:36.390Z,16.70
2019-06-07T22:08:05.946Z,16.70
2019-06-07T22:10:34.541Z,16.70
2019-06-07T22:13:03.966Z,16.70
2019-06-07T22:15:35.451Z,16.70
2019-06-07T22:18:02.716Z,16.80
2019-06-07T22:20:31.309Z,16.90
2019-06-07T22:22:59.823Z,16.90
2019-06-07T22:25:28.302Z,16.80
2019-06-07T22:27:56.845Z,16.90
2019-06-07T22:30:25.417Z,16.80
2019-06-07T22:32:53.969Z,16.80
2019-06-07T22:35:22.517Z,16.90
2019-06-07T22:37:51.002Z,16.80
2019-06-07T22:40:19.543Z,16.90
2019-06-07T22:42:48.001Z,16.90
2019-06-07T22:45:16.720Z,16.90
2019-06-07T22:47:45.323Z,16.90
2019-06-07T22:50:16.302Z,16.90
2019-06-07T22:52:44.865Z,16.90
2019-06-07T22:55:14.086Z,16.90
2019-06-07T22:57:56.281Z,16.90
2019-06-07T23:00:26.703Z,16.90
2019-06-07T23:02:55.337Z,16.90
2019-06-07T23:05:24.168Z,16.90
2019-06-07T23:07:52.767Z,16.80
2019-06-07T23:10:21.302Z,16.80
2019-06-07T23:12:49.781Z,16.90
2019-06-07T23:15:20.609Z,16.80
2019-06-07T23:17:49.456Z,16.90
2019-06-07T23:20:21.385Z,16.80
2019-06-07T23:22:50.206Z,16.80
2019-06-07T23:25:22.415Z,16.80
2019-06-07T23:27:49.109Z,16.80
2019-06-07T23:30:18.725Z,16.80
2019-06-07T23:32:47.385Z,16.70
2019-06-07T23:35:17.268Z,16.70
2019-06-07T23:37:45.963Z,16.70
2019-06-07T23:40:15.225Z,16.80
2019-06-07T23:42:43.905Z,16.70
2019-06-07T23:45:13.762Z,16.70
2019-06-07T23:47:42.557Z,16.70
2019-06-07T23:50:11.605Z,16.70
2019-06-07T23:52:40.150Z,16.70
2019-06-07T23:55:08.830Z,16.70
2019-06-07T23:57:37.321Z,16.70
